Time;durP1;ratioP1;P1;durP2;ratioP2;P2;SDS_P1;SDS_P2;PMS_P1;PMS_P2;Temp;Humidity;BMP_temperature;BMP_pressure;BME280_temperature;BME280_humidity;BME280_pressure;Samples;Min_cycle;Max_cycle;Signal;HPM_P1;HPM_P2
2023/09/06 00:01:52;;;;;;;16.58;8.35;;;;;13.10;96846.00;;;;8183631;28;20212;-65
2023/09/06 00:05:58;;;;;;;15.73;8.70;;;;;13.00;96846.00;;;;8189305;28;20553;-65
2023/09/06 00:10:02;;;;;;;10.38;7.60;;;;;13.00;96842.00;;;;8182497;28;20344;-65
2023/09/06 00:14:08;;;;;;;10.70;7.75;;;;;13.00;96849.00;;;;8202008;28;20234;-65
2023/09/06 00:18:12;;;;;;;13.13;8.38;;;;;12.90;96853.00;;;;8188273;28;20231;-65
2023/09/06 00:22:20;;;;;;;10.85;7.47;;;;;12.80;96844.00;;;;8189674;28;20322;-65
2023/09/06 00:26:26;;;;;;;13.77;7.85;;;;;12.70;96853.00;;;;8194479;28;20221;-65
2023/09/06 00:30:31;;;;;;;11.45;8.27;;;;;12.70;96852.00;;;;8200833;28;20238;-65
2023/09/06 00:34:37;;;;;;;15.48;9.68;;;;;12.70;96855.00;;;;8192957;28;20649;-65
2023/09/06 00:38:41;;;;;;;16.90;8.38;;;;;12.60;96850.00;;;;8180971;28;20213;-65
2023/09/06 00:42:47;;;;;;;12.23;8.35;;;;;12.60;96854.00;;;;8187095;28;20318;-64
2023/09/06 00:46:55;;;;;;;10.48;7.80;;;;;12.50;96846.00;;;;8197706;28;20234;-65
2023/09/06 00:51:03;;;;;;;15.20;9.05;;;;;12.40;96841.00;;;;8185786;28;20203;-64
2023/09/06 00:55:10;;;;;;;12.48;8.30;;;;;12.40;96845.00;;;;8187824;28;20630;-64
2023/09/06 00:59:22;;;;;;;14.73;9.00;;;;;12.40;96835.00;;;;8191531;28;20285;-64
2023/09/06 01:03:25;;;;;;;17.25;9.55;;;;;12.40;96836.00;;;;8184008;28;20837;-64
2023/09/06 01:07:34;;;;;;;13.88;9.55;;;;;12.60;96832.00;;;;8188784;28;20235;-65
2023/09/06 01:11:40;;;;;;;13.40;8.63;;;;;12.80;96836.00;;;;8187550;28;20284;-64
2023/09/06 01:15:46;;;;;;;16.00;7.85;;;;;13.10;96833.00;;;;8180712;28;20219;-64
2023/09/06 01:19:54;;;;;;;12.20;7.38;;;;;13.40;96831.00;;;;8187220;28;20842;-64
2023/09/06 01:24:02;;;;;;;11.05;7.15;;;;;13.70;96835.00;;;;8197938;28;20230;-65
2023/09/06 01:28:06;;;;;;;9.82;7.35;;;;;14.00;96829.00;;;;8189045;28;20208;-65
2023/09/06 01:32:10;;;;;;;12.23;6.68;;;;;14.20;96830.00;;;;8187790;28;20216;-65
2023/09/06 01:36:14;;;;;;;11.82;6.07;;;;;14.30;96839.00;;;;8185511;28;20282;-65
2023/09/06 01:40:21;;;;;;;8.25;6.82;;;;;14.40;96831.00;;;;8191694;28;20294;-65
2023/09/06 01:44:26;;;;;;;8.55;6.45;;;;;14.40;96824.00;;;;8188742;28;20215;-64
2023/09/06 01:48:30;;;;;;;9.15;5.57;;;;;14.50;96823.00;;;;8191545;28;20212;-64
2023/09/06 01:52:36;;;;;;;8.25;6.15;;;;;14.20;96823.00;;;;8186914;28;20253;-64
2023/09/06 01:56:47;;;;;;;10.55;6.20;;;;;13.80;96824.00;;;;8188074;28;20290;-65
2023/09/06 02:00:58;;;;;;;9.85;6.78;;;;;13.50;96819.00;;;;8172348;28;20204;-64
2023/09/06 02:05:01;;;;;;;11.38;6.10;;;;;13.20;96821.00;;;;8184145;28;20236;-65
2023/09/06 02:09:05;;;;;;;10.40;6.10;;;;;12.90;96818.00;;;;8192172;28;20199;-64
2023/09/06 02:13:16;;;;;;;11.35;6.85;;;;;12.80;96822.00;;;;8189037;28;20708;-64
2023/09/06 02:17:22;;;;;;;11.68;6.55;;;;;12.60;96820.00;;;;8188607;28;20324;-64
2023/09/06 02:21:25;;;;;;;15.27;6.85;;;;;12.40;96817.00;;;;8204426;28;20641;-64
2023/09/06 02:25:30;;;;;;;10.68;7.47;;;;;12.20;96810.00;;;;8192253;28;20212;-64
2023/09/06 02:29:38;;;;;;;13.63;7.40;;;;;12.10;96803.00;;;;8203861;28;20728;-64
2023/09/06 02:33:45;;;;;;;12.70;7.20;;;;;12.00;96797.00;;;;8190721;28;20236;-64
2023/09/06 02:37:50;;;;;;;11.13;7.18;;;;;12.00;96797.00;;;;8198833;28;20205;-64
2023/09/06 02:41:54;;;;;;;12.77;7.80;;;;;11.90;96808.00;;;;8198921;28;20241;-64
2023/09/06 02:46:03;;;;;;;16.85;8.43;;;;;11.90;96807.00;;;;8199386;28;20206;-64
2023/09/06 02:50:11;;;;;;;13.18;7.57;;;;;11.80;96797.00;;;;8191494;28;20255;-64
2023/09/06 02:54:17;;;;;;;12.70;7.53;;;;;11.80;96796.00;;;;8175111;28;20253;-64
2023/09/06 02:58:24;;;;;;;17.23;7.13;;;;;11.80;96794.00;;;;8199934;28;20979;-64
2023/09/06 03:02:33;;;;;;;13.00;7.85;;;;;11.80;96791.00;;;;8242228;23;20248;-64
2023/09/06 03:06:38;;;;;;;12.20;7.57;;;;;11.70;96794.00;;;;8262354;28;20194;-64
2023/09/06 03:10:41;;;;;;;13.68;8.75;;;;;11.70;96796.00;;;;8250920;28;20206;-64
2023/09/06 03:14:48;;;;;;;15.52;8.32;;;;;11.70;96796.00;;;;8260191;28;20300;-65
2023/09/06 03:18:58;;;;;;;12.75;7.78;;;;;11.80;96802.00;;;;8247866;28;20227;-64
2023/09/06 03:23:09;;;;;;;13.43;8.65;;;;;11.90;96801.00;;;;8258402;28;20203;-64
2023/09/06 03:27:16;;;;;;;16.45;8.50;;;;;12.20;96807.00;;;;8283112;28;20283;-64
2023/09/06 03:31:19;;;;;;;15.80;8.68;;;;;12.40;96814.00;;;;8280736;28;20281;-65
2023/09/06 03:35:25;;;;;;;13.45;7.57;;;;;12.50;96815.00;;;;8279175;28;20322;-64
2023/09/06 03:39:41;;;;;;;11.20;7.45;;;;;12.60;96808.00;;;;8266416;28;20239;-65
2023/09/06 03:43:45;;;;;;;9.25;6.60;;;;;12.60;96809.00;;;;8280927;28;20203;-63
2023/09/06 03:47:48;;;;;;;12.13;7.00;;;;;12.50;96808.00;;;;8274993;28;20697;-64
2023/09/06 03:51:55;;;;;;;8.38;6.70;;;;;12.40;96818.00;;;;8255135;28;20199;-63
2023/09/06 03:56:01;;;;;;;10.05;6.82;;;;;12.20;96817.00;;;;8276387;28;20993;-65
2023/09/06 04:04:23;;;;;;;12.15;7.13;;;;;12.20;96820.00;;;;8252947;28;20266;-65
2023/09/06 04:08:29;;;;;;;9.68;7.50;;;;;12.30;96820.00;;;;8248820;28;20323;-64
2023/09/06 04:12:36;;;;;;;15.52;7.60;;;;;12.50;96820.00;;;;8245019;28;20205;-64
2023/09/06 04:16:48;;;;;;;11.55;6.65;;;;;12.80;96824.00;;;;8239914;28;20312;-64
2023/09/06 04:20:54;;;;;;;11.52;7.40;;;;;12.90;96822.00;;;;8236689;28;20262;-64
2023/09/06 04:25:00;;;;;;;9.10;7.00;;;;;13.00;96834.00;;;;8244415;28;20399;-64
2023/09/06 04:29:05;;;;;;;11.25;7.28;;;;;13.00;96825.00;;;;8238271;28;20853;-64
2023/09/06 04:33:10;;;;;;;14.10;6.70;;;;;13.10;96827.00;;;;8230034;28;20209;-64
2023/09/06 04:37:18;;;;;;;12.38;7.95;;;;;13.20;96836.00;;;;8243408;28;20591;-63
2023/09/06 04:41:24;;;;;;;9.43;6.70;;;;;13.30;96844.00;;;;8235891;28;20237;-64
2023/09/06 04:45:27;;;;;;;9.77;6.68;;;;;13.40;96832.00;;;;8244392;28;20244;-64
2023/09/06 04:49:35;;;;;;;10.80;6.50;;;;;13.50;96844.00;;;;8241769;28;20288;-64
2023/09/06 04:53:39;;;;;;;10.48;6.93;;;;;13.60;96843.00;;;;8235279;28;20205;-65
2023/09/06 04:57:45;;;;;;;11.52;7.10;;;;;13.70;96848.00;;;;8239341;28;20250;-64
2023/09/06 05:01:48;;;;;;;12.45;6.90;;;;;13.80;96850.00;;;;8229668;28;20349;-64
2023/09/06 05:05:51;;;;;;;9.13;6.72;;;;;13.70;96844.00;;;;8247109;28;20825;-64
2023/09/06 05:09:57;;;;;;;9.82;6.50;;;;;13.80;96849.00;;;;8243591;28;20198;-63
2023/09/06 05:14:02;;;;;;;9.95;6.88;;;;;13.80;96841.00;;;;8245126;28;20285;-64
2023/09/06 05:18:11;;;;;;;10.30;6.22;;;;;13.80;96845.00;;;;8238134;28;20718;-64
2023/09/06 05:22:14;;;;;;;9.93;6.75;;;;;13.90;96846.00;;;;8246431;28;20210;-64
2023/09/06 05:26:19;;;;;;;11.32;6.30;;;;;13.90;96843.00;;;;8246563;28;20201;-65
2023/09/06 05:30:24;;;;;;;8.45;6.22;;;;;13.90;96835.00;;;;8243613;28;20210;-66
2023/09/06 05:34:30;;;;;;;7.90;5.97;;;;;14.00;96836.00;;;;8252996;28;20230;-64
2023/09/06 05:38:33;;;;;;;7.50;5.47;;;;;14.10;96834.00;;;;8249688;28;20203;-64
2023/09/06 05:42:38;;;;;;;9.07;6.60;;;;;14.20;96840.00;;;;8244762;28;20261;-64
2023/09/06 05:46:46;;;;;;;9.23;5.90;;;;;14.30;96839.00;;;;8242635;28;20218;-64
2023/09/06 05:50:49;;;;;;;8.52;5.82;;;;;14.40;96844.00;;;;8245061;28;20201;-64
2023/09/06 05:54:52;;;;;;;10.23;5.75;;;;;14.50;96844.00;;;;8246058;28;20316;-64
2023/09/06 05:59:00;;;;;;;7.75;5.63;;;;;14.70;96844.00;;;;8246512;28;20207;-65
2023/09/06 06:03:05;;;;;;;9.68;5.53;;;;;14.80;96861.00;;;;8244911;28;20341;-64
2023/09/06 06:07:11;;;;;;;12.60;5.75;;;;;15.00;96856.00;;;;8246596;28;20210;-65
2023/09/06 06:11:17;;;;;;;9.93;6.00;;;;;15.20;96866.00;;;;8247193;28;20213;-64
2023/09/06 06:15:22;;;;;;;10.50;5.88;;;;;15.30;96866.00;;;;8248083;28;20688;-65
2023/09/06 06:19:27;;;;;;;9.45;5.32;;;;;15.50;96866.00;;;;8251864;28;20899;-65
2023/09/06 06:23:30;;;;;;;15.25;6.00;;;;;15.70;96866.00;;;;8245570;28;20257;-65
2023/09/06 06:27:34;;;;;;;7.57;5.53;;;;;15.80;96872.00;;;;8245847;28;20195;-64
2023/09/06 06:31:37;;;;;;;7.70;5.63;;;;;16.00;96871.00;;;;8250021;28;21125;-64
2023/09/06 06:35:43;;;;;;;9.57;5.13;;;;;16.10;96874.00;;;;8245939;28;20264;-64
2023/09/06 06:39:58;;;;;;;12.30;6.00;;;;;16.20;96882.00;;;;8244806;28;20273;-64
2023/09/06 06:44:02;;;;;;;9.93;5.40;;;;;16.40;96886.00;;;;8248294;28;20206;-65
2023/09/06 06:48:06;;;;;;;10.10;5.70;;;;;16.50;96887.00;;;;8249292;28;20202;-63
2023/09/06 06:52:11;;;;;;;8.43;5.05;;;;;16.70;96892.00;;;;8237943;28;20256;-63
2023/09/06 06:56:14;;;;;;;7.88;4.55;;;;;16.70;96885.00;;;;8241706;28;20222;-64
2023/09/06 07:00:21;;;;;;;6.15;5.03;;;;;16.90;96888.00;;;;8243110;28;20232;-64
2023/09/06 07:04:24;;;;;;;5.78;4.72;;;;;17.10;96889.00;;;;8243613;28;21887;-64
2023/09/06 07:08:29;;;;;;;7.70;4.97;;;;;17.30;96903.00;;;;8247425;28;20990;-63
2023/09/06 07:12:32;;;;;;;8.57;4.70;;;;;17.50;96896.00;;;;8244684;28;20322;-63
2023/09/06 07:16:40;;;;;;;7.97;4.55;;;;;17.70;96905.00;;;;8241685;28;20981;-63
2023/09/06 07:20:47;;;;;;;6.07;4.40;;;;;18.00;96904.00;;;;8229848;28;20273;-64
2023/09/06 07:24:56;;;;;;;6.22;4.60;;;;;18.20;96902.00;;;;8239754;28;20442;-64
2023/09/06 07:29:07;;;;;;;10.10;4.50;;;;;18.20;96908.00;;;;8237270;28;20214;-66
2023/09/06 07:33:10;;;;;;;11.65;4.60;;;;;18.30;96904.00;;;;8241018;28;20199;-66
2023/09/06 07:37:16;;;;;;;6.93;4.72;;;;;18.60;96913.00;;;;8241152;28;20234;-65
2023/09/06 07:41:21;;;;;;;5.18;4.20;;;;;18.80;96904.00;;;;8244670;28;20199;-65
2023/09/06 07:45:26;;;;;;;8.90;4.68;;;;;19.10;96906.00;;;;8244182;28;20265;-65
2023/09/06 07:49:30;;;;;;;5.72;4.30;;;;;19.40;96907.00;;;;8243837;28;20202;-66
2023/09/06 07:53:34;;;;;;;8.65;4.88;;;;;19.80;96908.00;;;;8242469;28;20210;-65
2023/09/06 07:57:39;;;;;;;6.28;4.88;;;;;20.20;96904.00;;;;8247499;28;20221;-65
2023/09/06 08:01:44;;;;;;;8.57;4.82;;;;;20.40;96896.00;;;;8240826;28;20325;-65
2023/09/06 08:05:47;;;;;;;5.22;4.15;;;;;20.50;96895.00;;;;8241896;28;20222;-66
2023/09/06 08:09:52;;;;;;;7.60;4.45;;;;;20.80;96902.00;;;;8243045;28;20198;-65
2023/09/06 08:13:57;;;;;;;10.80;4.45;;;;;21.30;96900.00;;;;8244398;28;20203;-66
2023/09/06 08:18:00;;;;;;;7.47;4.75;;;;;22.10;96914.00;;;;8245776;28;20321;-65
2023/09/06 08:22:04;;;;;;;6.28;4.38;;;;;22.70;96921.00;;;;8242474;28;20226;-65
2023/09/06 08:26:13;;;;;;;6.50;4.32;;;;;23.10;96928.00;;;;8241136;28;20235;-65
2023/09/06 08:30:24;;;;;;;5.65;4.20;;;;;23.80;96918.00;;;;8247416;28;20204;-65
2023/09/06 08:34:28;;;;;;;4.68;4.28;;;;;24.40;96927.00;;;;8251267;28;21311;-66
2023/09/06 08:38:33;;;;;;;7.88;4.32;;;;;24.80;96930.00;;;;8252182;28;20698;-66
2023/09/06 08:42:44;;;;;;;8.35;4.47;;;;;25.10;96933.00;;;;8249741;28;20202;-66
2023/09/06 08:46:55;;;;;;;6.47;4.60;;;;;25.50;96934.00;;;;8251908;28;20227;-65
2023/09/06 08:51:03;;;;;;;4.80;4.22;;;;;25.90;96941.00;;;;8240095;28;20202;-66
2023/09/06 08:55:11;;;;;;;4.85;4.15;;;;;26.10;96939.00;;;;8244213;28;20278;-66
2023/09/06 08:59:14;;;;;;;4.45;4.05;;;;;26.00;96945.00;;;;8246828;28;20203;-66
2023/09/06 09:03:22;;;;;;;4.55;4.13;;;;;26.20;96956.00;;;;8245172;28;20219;-66
2023/09/06 09:07:27;;;;;;;4.80;3.95;;;;;26.80;96959.00;;;;8244792;28;20202;-66
2023/09/06 09:11:38;;;;;;;4.22;3.83;;;;;27.50;96959.00;;;;8246509;28;20191;-66
2023/09/06 09:15:48;;;;;;;7.32;4.28;;;;;28.00;96958.00;;;;8244805;28;20369;-66
2023/09/06 09:19:55;;;;;;;6.88;4.30;;;;;27.90;96952.00;;;;8248580;28;20207;-64
2023/09/06 09:23:58;;;;;;;7.32;4.15;;;;;27.60;96957.00;;;;8244560;28;20617;-65
2023/09/06 09:28:06;;;;;;;7.97;3.67;;;;;27.90;96955.00;;;;8248555;28;20295;-65
2023/09/06 09:32:12;;;;;;;7.18;3.70;;;;;28.10;96964.00;;;;8248775;28;20731;-66
2023/09/06 09:36:21;;;;;;;4.53;3.58;;;;;27.90;96960.00;;;;8244959;28;20227;-65
2023/09/06 09:40:32;;;;;;;4.30;3.60;;;;;28.40;96963.00;;;;8241186;28;20245;-66
2023/09/06 09:45:02;;;;;;;3.75;3.45;;;;;28.50;96963.00;;;;8248721;28;20191;-66
2023/09/06 09:49:13;;;;;;;7.07;4.13;;;;;28.60;96963.00;;;;8245092;28;20218;-65
2023/09/06 09:53:23;;;;;;;4.15;3.75;;;;;28.60;96963.00;;;;8241762;28;20217;-65
2023/09/06 09:57:31;;;;;;;4.18;3.60;;;;;29.10;96966.00;;;;8244886;28;20281;-66
2023/09/06 10:01:34;;;;;;;4.20;3.80;;;;;29.30;96959.00;;;;8247092;28;20211;-65
2023/09/06 10:05:39;;;;;;;5.68;3.70;;;;;29.70;96955.00;;;;8244040;28;20205;-65
2023/09/06 10:09:43;;;;;;;3.70;3.40;;;;;29.60;96956.00;;;;8243520;28;20202;-65
2023/09/06 10:13:49;;;;;;;3.85;3.45;;;;;29.40;96944.00;;;;8243559;28;20199;-65
2023/09/06 10:18:04;;;;;;;6.57;3.33;;;;;29.50;96950.00;;;;8244061;28;20301;-66
2023/09/06 10:22:11;;;;;;;3.30;3.00;;;;;29.90;96945.00;;;;8239243;28;20207;-65
2023/09/06 10:26:25;;;;;;;3.80;3.20;;;;;30.10;96937.00;;;;8245877;28;20210;-66
2023/09/06 10:30:43;;;;;;;3.80;2.45;;;;;30.30;96950.00;;;;8244751;28;21317;-65
2023/09/06 10:35:08;;;;;;;3.95;2.90;;;;;30.60;96941.00;;;;8243588;28;20683;-65
2023/09/06 10:39:14;;;;;;;3.35;2.95;;;;;30.80;96942.00;;;;8244640;28;20233;-66
2023/09/06 10:43:20;;;;;;;3.25;2.90;;;;;30.70;96937.00;;;;8243050;28;20210;-66
2023/09/06 10:47:27;;;;;;;4.70;3.33;;;;;30.10;96942.00;;;;8241600;28;20211;-65
2023/09/06 10:51:32;;;;;;;3.72;2.70;;;;;29.70;96934.00;;;;8243456;28;20199;-67
2023/09/06 10:55:46;;;;;;;2.50;2.30;;;;;29.40;96942.00;;;;8248297;28;20219;-68
2023/09/06 10:59:59;;;;;;;3.80;2.60;;;;;28.90;96934.00;;;;8249598;28;20309;-64
2023/09/06 11:04:14;;;;;;;5.32;2.60;;;;;28.40;96937.00;;;;8244349;28;20226;-65
2023/09/06 11:08:29;;;;;;;2.70;2.50;;;;;28.70;96936.00;;;;8239572;28;20207;-64
2023/09/06 11:12:34;;;;;;;4.22;2.80;;;;;28.90;96920.00;;;;8237302;28;20214;-66
2023/09/06 11:16:49;;;;;;;2.83;2.55;;;;;29.00;96925.00;;;;8242949;28;20237;-66
2023/09/06 11:20:53;;;;;;;3.50;2.65;;;;;29.60;96928.00;;;;8240458;28;20203;-60
2023/09/06 11:24:56;;;;;;;3.15;2.83;;;;;29.90;96912.00;;;;8241256;28;20273;-62
2023/09/06 11:29:04;;;;;;;4.63;2.90;;;;;30.20;96918.00;;;;8241702;28;20326;-63
2023/09/06 11:33:11;;;;;;;7.45;2.95;;;;;30.30;96918.00;;;;8240361;28;20209;-63
2023/09/06 11:37:17;;;;;;;2.28;2.13;;;;;30.10;96915.00;;;;8240568;28;20708;-62
2023/09/06 11:41:21;;;;;;;3.17;2.47;;;;;30.20;96912.00;;;;8240514;28;20195;-62
2023/09/06 11:45:26;;;;;;;3.53;2.33;;;;;30.30;96900.00;;;;8240197;28;20289;-63
2023/09/06 11:49:34;;;;;;;5.47;3.58;;;;;30.30;96900.00;;;;8244654;28;20207;-63
2023/09/06 11:53:43;;;;;;;4.50;3.78;;;;;30.20;96900.00;;;;8243096;28;20221;-62
2023/09/06 11:57:52;;;;;;;3.80;3.25;;;;;29.30;96898.00;;;;8239246;28;20266;-61
2023/09/06 12:01:59;;;;;;;3.20;3.00;;;;;28.70;96890.00;;;;8233942;28;20226;-62
2023/09/06 12:06:09;;;;;;;6.15;2.70;;;;;28.30;96887.00;;;;8243701;28;20293;-63
2023/09/06 12:10:21;;;;;;;4.10;2.72;;;;;28.50;96881.00;;;;8244601;28;20241;-63
2023/09/06 12:14:29;;;;;;;3.28;2.95;;;;;28.50;96887.00;;;;8234759;28;20294;-62
2023/09/06 12:18:34;;;;;;;3.50;3.20;;;;;28.30;96878.00;;;;8243973;28;20230;-63
2023/09/06 12:22:43;;;;;;;3.65;2.80;;;;;28.10;96877.00;;;;8241490;28;20203;-63
2023/09/06 12:26:48;;;;;;;5.55;2.90;;;;;28.00;96865.00;;;;8226585;28;20302;-63
2023/09/06 12:30:54;;;;;;;3.13;2.92;;;;;28.00;96858.00;;;;8248129;28;20203;-62
2023/09/06 12:34:59;;;;;;;3.72;2.88;;;;;28.20;96866.00;;;;8242938;28;20206;-62
2023/09/06 12:39:06;;;;;;;4.90;3.70;;;;;28.40;96864.00;;;;8242976;28;20726;-64
2023/09/06 12:43:09;;;;;;;3.20;3.00;;;;;28.30;96875.00;;;;8228962;28;20246;-62
2023/09/06 12:47:17;;;;;;;3.58;3.08;;;;;28.20;96857.00;;;;8244392;28;20234;-63
2023/09/06 12:51:23;;;;;;;3.00;2.80;;;;;28.40;96862.00;;;;8221106;28;20207;-64
2023/09/06 12:55:31;;;;;;;4.47;3.10;;;;;28.40;96844.00;;;;8244401;28;20280;-64
2023/09/06 12:59:34;;;;;;;4.50;3.42;;;;;28.40;96863.00;;;;8245400;28;20241;-63
2023/09/06 13:03:37;;;;;;;2.92;2.72;;;;;28.30;96857.00;;;;8225989;28;20230;-63
2023/09/06 13:07:40;;;;;;;4.10;2.88;;;;;28.20;96853.00;;;;8245426;28;20303;-63
2023/09/06 13:11:45;;;;;;;4.68;3.00;;;;;28.10;96853.00;;;;8249576;28;20918;-63
2023/09/06 13:15:50;;;;;;;3.20;2.90;;;;;28.20;96851.00;;;;8242354;28;20218;-64
2023/09/06 13:19:54;;;;;;;4.32;2.92;;;;;28.20;96850.00;;;;8251622;28;20625;-63
2023/09/06 13:23:59;;;;;;;4.90;3.15;;;;;28.20;96850.00;;;;8259045;28;20214;-64
2023/09/06 13:28:07;;;;;;;3.08;2.80;;;;;28.20;96841.00;;;;8254005;28;20869;-64
2023/09/06 13:32:12;;;;;;;3.13;2.85;;;;;28.30;96841.00;;;;8246596;28;20191;-64
2023/09/06 13:36:19;;;;;;;3.97;3.20;;;;;28.40;96833.00;;;;8249538;28;20210;-63
2023/09/06 13:40:22;;;;;;;4.90;3.15;;;;;28.50;96826.00;;;;8246445;28;20234;-64
2023/09/06 13:44:33;;;;;;;5.55;2.80;;;;;28.80;96834.00;;;;8245443;28;20195;-65
2023/09/06 13:48:36;;;;;;;2.80;2.60;;;;;29.30;96821.00;;;;8249603;28;20207;-64
2023/09/06 13:52:40;;;;;;;4.43;2.60;;;;;29.80;96813.00;;;;8231815;28;20662;-62
2023/09/06 13:56:50;;;;;;;3.15;2.85;;;;;30.10;96810.00;;;;8244008;28;20214;-63
2023/09/06 14:01:03;;;;;;;2.95;2.75;;;;;30.20;96810.00;;;;8247550;28;20237;-63
2023/09/06 14:05:09;;;;;;;3.13;2.45;;;;;30.30;96809.00;;;;8250036;28;20273;-64
2023/09/06 14:09:12;;;;;;;5.85;3.03;;;;;30.70;96808.00;;;;8235160;28;20234;-63
2023/09/06 14:13:16;;;;;;;3.63;2.50;;;;;31.10;96804.00;;;;8245310;28;20997;-62
2023/09/06 14:17:20;;;;;;;6.85;2.60;;;;;31.00;96800.00;;;;8244188;28;20214;-64
2023/09/06 14:21:26;;;;;;;3.13;2.92;;;;;31.10;96795.00;;;;8243961;28;20237;-64
2023/09/06 14:25:30;;;;;;;5.57;2.75;;;;;31.00;96794.00;;;;8227471;28;20217;-63
2023/09/06 14:29:33;;;;;;;3.42;2.65;;;;;31.20;96807.00;;;;8241948;28;20237;-64
2023/09/06 14:33:38;;;;;;;2.85;2.65;;;;;31.30;96796.00;;;;8245728;28;20321;-63
2023/09/06 14:37:41;;;;;;;3.13;2.92;;;;;31.30;96797.00;;;;8249481;28;20226;-64
2023/09/06 14:41:47;;;;;;;7.25;2.95;;;;;31.10;96794.00;;;;8248359;28;20226;-64
2023/09/06 14:45:51;;;;;;;3.17;2.88;;;;;31.10;96797.00;;;;8250326;28;20202;-64
2023/09/06 14:49:57;;;;;;;2.72;2.55;;;;;31.20;96790.00;;;;8253803;28;20306;-63
2023/09/06 14:54:01;;;;;;;3.13;2.83;;;;;31.10;96796.00;;;;8237637;28;20195;-63
2023/09/06 14:58:07;;;;;;;2.85;2.65;;;;;30.90;96802.00;;;;8231540;28;20288;-63
2023/09/06 15:02:11;;;;;;;6.90;2.72;;;;;30.80;96794.00;;;;8251161;28;20222;-63
2023/09/06 15:06:24;;;;;;;5.00;2.85;;;;;30.80;96789.00;;;;8250616;28;20199;-63
2023/09/06 15:10:31;;;;;;;4.53;2.88;;;;;30.80;96791.00;;;;8253247;28;20221;-64
2023/09/06 15:14:36;;;;;;;3.47;3.15;;;;;30.70;96801.00;;;;8250961;28;20199;-63
2023/09/06 15:18:45;;;;;;;3.17;2.97;;;;;30.70;96798.00;;;;8250195;28;20227;-64
2023/09/06 15:22:51;;;;;;;6.05;2.97;;;;;30.80;96790.00;;;;8250867;28;20226;-64
2023/09/06 15:27:00;;;;;;;2.63;2.42;;;;;30.70;96790.00;;;;8251314;28;20663;-64
2023/09/06 15:31:05;;;;;;;4.65;3.22;;;;;30.50;96788.00;;;;8248195;28;20719;-63
2023/09/06 15:35:09;;;;;;;18.80;3.15;;;;;30.40;96782.00;;;;8250417;28;20209;-64
2023/09/06 15:39:16;;;;;;;10.75;2.90;;;;;30.40;96776.00;;;;8249424;28;20289;-63
2023/09/06 15:43:22;;;;;;;3.30;3.00;;;;;30.40;96783.00;;;;8252400;28;20322;-63
2023/09/06 15:47:26;;;;;;;3.53;2.60;;;;;30.30;96781.00;;;;8244703;28;20712;-62
2023/09/06 15:51:29;;;;;;;2.70;2.50;;;;;30.30;96784.00;;;;8248284;28;20195;-64
2023/09/06 15:55:36;;;;;;;2.92;2.60;;;;;30.40;96784.00;;;;8245817;28;20234;-64
2023/09/06 15:59:41;;;;;;;3.55;2.50;;;;;30.40;96782.00;;;;8246251;28;20227;-63
2023/09/06 16:03:44;;;;;;;3.45;2.10;;;;;30.50;96787.00;;;;8244227;28;20269;-63
2023/09/06 16:07:48;;;;;;;4.03;2.40;;;;;30.50;96786.00;;;;8242949;28;20222;-63
2023/09/06 16:11:56;;;;;;;3.45;2.40;;;;;30.60;96791.00;;;;8246955;28;20317;-63
2023/09/06 16:15:59;;;;;;;2.60;2.40;;;;;30.80;96785.00;;;;8247835;28;20199;-63
2023/09/06 16:20:04;;;;;;;2.28;2.17;;;;;30.80;96789.00;;;;8247819;28;20218;-64
2023/09/06 16:24:07;;;;;;;2.38;2.28;;;;;30.70;96785.00;;;;8249619;28;20241;-63
2023/09/06 16:28:14;;;;;;;2.72;2.53;;;;;30.70;96779.00;;;;8249432;28;20254;-64
2023/09/06 16:32:17;;;;;;;2.63;2.42;;;;;30.80;96787.00;;;;8251857;28;20245;-63
2023/09/06 16:36:22;;;;;;;4.22;2.50;;;;;30.60;96783.00;;;;8246357;28;20668;-64
2023/09/06 16:40:25;;;;;;;3.45;2.38;;;;;30.40;96789.00;;;;8242402;28;20810;-63
2023/09/06 16:44:35;;;;;;;2.67;2.47;;;;;29.90;96782.00;;;;8246379;28;20207;-63
2023/09/06 16:48:38;;;;;;;2.58;2.30;;;;;29.20;96786.00;;;;8253759;28;20207;-64
2023/09/06 16:52:45;;;;;;;3.88;2.08;;;;;28.50;96788.00;;;;8251080;28;20583;-64
2023/09/06 16:56:50;;;;;;;3.15;2.28;;;;;27.90;96787.00;;;;8254945;28;20213;-64
2023/09/06 17:00:58;;;;;;;3.05;2.20;;;;;27.40;96784.00;;;;8257223;28;20221;-63
2023/09/06 17:05:05;;;;;;;2.63;2.03;;;;;27.00;96778.00;;;;8257146;28;20342;-63
2023/09/06 17:09:16;;;;;;;3.45;2.38;;;;;26.60;96782.00;;;;8249004;28;20228;-62
2023/09/06 17:13:19;;;;;;;6.55;2.47;;;;;26.30;96783.00;;;;8253800;28;20206;-64
2023/09/06 17:17:24;;;;;;;7.22;2.50;;;;;26.10;96788.00;;;;8254932;28;20207;-63
2023/09/06 17:21:27;;;;;;;3.22;2.20;;;;;25.80;96787.00;;;;8251420;28;20748;-63
2023/09/06 17:25:31;;;;;;;7.30;2.60;;;;;25.60;96789.00;;;;8252136;28;20281;-62
2023/09/06 17:29:37;;;;;;;2.38;2.17;;;;;25.40;96783.00;;;;8251384;28;20293;-63
2023/09/06 17:33:49;;;;;;;5.00;2.33;;;;;25.10;96785.00;;;;8251186;28;20756;-62
2023/09/06 17:37:54;;;;;;;4.38;2.30;;;;;24.90;96785.00;;;;8241642;28;20195;-62
2023/09/06 17:42:00;;;;;;;4.30;2.58;;;;;24.60;96789.00;;;;8246634;28;20238;-64
2023/09/06 17:46:14;;;;;;;4.80;2.50;;;;;24.20;96792.00;;;;8246952;28;20313;-63
2023/09/06 17:50:19;;;;;;;3.72;2.70;;;;;23.90;96797.00;;;;8248406;28;20203;-63
2023/09/06 17:54:28;;;;;;;3.05;2.50;;;;;23.70;96791.00;;;;8243493;28;20213;-63
2023/09/06 17:58:31;;;;;;;5.03;2.88;;;;;23.50;96797.00;;;;8246861;28;20946;-64
2023/09/06 18:02:37;;;;;;;4.72;2.50;;;;;23.30;96795.00;;;;8247027;28;20234;-64
2023/09/06 18:06:45;;;;;;;3.30;3.00;;;;;23.10;96798.00;;;;8242142;28;21044;-63
2023/09/06 18:10:51;;;;;;;3.03;2.60;;;;;23.00;96802.00;;;;8248673;28;20207;-64
2023/09/06 18:14:58;;;;;;;6.38;3.22;;;;;22.90;96804.00;;;;8252578;28;20669;-63
2023/09/06 18:19:08;;;;;;;3.63;3.00;;;;;22.60;96801.00;;;;8248615;28;20267;-64
2023/09/06 18:23:14;;;;;;;4.95;2.88;;;;;22.40;96799.00;;;;8229895;28;20241;-64
2023/09/06 18:27:20;;;;;;;5.45;3.20;;;;;22.20;96809.00;;;;8247855;28;20201;-64
2023/09/06 18:31:25;;;;;;;3.58;3.10;;;;;22.00;96802.00;;;;8246541;28;20226;-64
2023/09/06 18:35:29;;;;;;;3.45;3.15;;;;;21.90;96812.00;;;;8247399;28;20203;-64
2023/09/06 18:39:38;;;;;;;3.00;2.70;;;;;21.70;96813.00;;;;8259678;28;20591;-62
2023/09/06 18:43:43;;;;;;;3.65;3.15;;;;;21.50;96807.00;;;;8244214;28;20641;-63
2023/09/06 18:47:47;;;;;;;6.60;3.47;;;;;21.30;96811.00;;;;8249279;28;20207;-63
2023/09/06 18:51:55;;;;;;;3.33;3.03;;;;;21.20;96805.00;;;;8249852;28;20199;-63
2023/09/06 18:56:03;;;;;;;3.33;3.03;;;;;21.10;96812.00;;;;8247059;28;20345;-63
2023/09/06 19:00:17;;;;;;;4.50;3.33;;;;;21.00;96809.00;;;;8249113;28;20248;-63
2023/09/06 19:04:23;;;;;;;3.35;3.10;;;;;20.90;96821.00;;;;8249166;28;20984;-64
2023/09/06 19:08:26;;;;;;;5.55;3.67;;;;;20.70;96815.00;;;;8260649;28;20213;-64
2023/09/06 19:12:34;;;;;;;4.57;3.30;;;;;20.70;96820.00;;;;8257681;28;20213;-64
2023/09/06 19:16:37;;;;;;;4.05;2.75;;;;;20.80;96821.00;;;;8249853;28;20294;-64
2023/09/06 19:20:43;;;;;;;3.97;3.17;;;;;20.90;96816.00;;;;8246922;28;20226;-64
2023/09/06 19:24:49;;;;;;;4.95;3.47;;;;;21.00;96816.00;;;;8246958;28;20211;-63
2023/09/06 19:28:54;;;;;;;6.85;3.30;;;;;21.00;96817.00;;;;8249063;28;20238;-64
2023/09/06 19:33:00;;;;;;;4.43;3.58;;;;;21.00;96823.00;;;;8244100;28;20229;-64
2023/09/06 19:37:05;;;;;;;3.95;3.50;;;;;21.00;96821.00;;;;8249932;28;20202;-64
2023/09/06 19:41:08;;;;;;;5.20;3.30;;;;;21.00;96823.00;;;;8248542;28;20237;-65
2023/09/06 19:45:14;;;;;;;5.57;3.28;;;;;21.00;96823.00;;;;8242657;28;20644;-63
2023/09/06 19:49:20;;;;;;;3.55;3.25;;;;;21.00;96821.00;;;;8248482;28;20207;-63
2023/09/06 19:53:23;;;;;;;3.75;3.40;;;;;21.00;96825.00;;;;8246917;28;20207;-64
2023/09/06 19:57:27;;;;;;;7.38;3.63;;;;;20.90;96826.00;;;;8246515;28;20213;-64
2023/09/06 20:01:31;;;;;;;10.02;4.03;;;;;20.90;96823.00;;;;8232491;28;20612;-65
2023/09/06 20:05:36;;;;;;;4.50;3.88;;;;;20.80;96824.00;;;;8242379;28;20591;-64
2023/09/06 20:09:39;;;;;;;9.18;3.40;;;;;20.80;96824.00;;;;8246143;28;20214;-64
2023/09/06 20:13:48;;;;;;;6.53;3.85;;;;;20.80;96824.00;;;;8230045;28;20249;-63
2023/09/06 20:17:57;;;;;;;7.00;4.22;;;;;20.70;96821.00;;;;8245627;28;20652;-64
2023/09/06 20:22:01;;;;;;;7.82;3.65;;;;;20.60;96821.00;;;;8252575;28;20305;-64
2023/09/06 20:26:07;;;;;;;3.85;3.53;;;;;20.50;96821.00;;;;8248043;28;20237;-64
2023/09/06 20:30:11;;;;;;;4.43;4.03;;;;;20.50;96818.00;;;;8252892;28;20225;-65
2023/09/06 20:34:18;;;;;;;8.10;3.65;;;;;20.40;96814.00;;;;8258012;28;20284;-65